Hlavní strana
METAR-TAF:

METAR-TAF

Letiště :

McGhee Tyson Airport

Knoxville, Tennessee, Spojené státy americké

zeměpisná šířka: 35-49-05N, zeměpisná délka: 083-59-09W, výška: 299 m

Aktuální stav počasí

Zpráva byla vytvořena před 47 minutami, v 16:53 UTC
Severovýchodní vítr 11 kt
Teplota 11°C
Vlhkost vzduchu 37%
Tlak 1023 hPa
Viditelnost: 16.1 km
Oblačno až skoro zataženo ve výšce 17000 ft
Oblačno až skoro zataženo ve výšce 25000 ft

METAR: KTYS 151653Z 05011KT 10SM BKN170 BKN250 11/M03 A3021 RMK AO2 SLP230 T01061028

Čas: 12:40 (17:40 UTC)

Předpověď počasí

Zpráva byla vytvořena před 15 minutami, v 17:25 UTC
Předpověď platná od 15 v 18 UTC do 16 v 18 UTC
Severovýchodní vítr 9 kt
Viditelnost: 10 km
Oblačno až skoro zataženo ve výšce 15000 ft
Od 15 v 2200 UTC
Severoseverovýchodní vítr 7 kt
Viditelnost: 10 km
Polojasno ve výšce 12000 ft

TAF: KTYS 151725Z 1518/1618 04009KT P6SM BKN150 FM152200 02007KT P6SM SCT120

Stav a předpovědi počasí z více než 4 000 letišť (zprávy METAR a TAF).

Červené a žluté tečky na mapě představují dostupné meteorologické stanice.

Když kurzor umístíte na tečku, zobrazí se název stanice.

Pak kliknutím zobrazíte stav a předpověď počasí.

Chcete-li změnit mapu, kliknutím na zelené tlačítko se znaménkem +mapu přiblížíte, kliknutím na zelené tlačítko se znaménkem – mapu oddálíte a kliknutím na zelené šipky přejdete na sousední mapy.


METAR-TAF: